sensor_id;sensor_type;location;lat;lon;timestamp;pressure;altitude;pressure_sealevel;temperature;humidity
47815;BME280;33579;50.058;18.130;2023-01-30T00:00:11;99381.16;;;-3.16;100.00
47815;BME280;33579;50.058;18.130;2023-01-30T00:01:18;99377.69;;;-3.13;100.00
47815;BME280;33579;50.058;18.130;2023-01-30T00:02:20;99372.50;;;-3.12;100.00
47815;BME280;33579;50.058;18.130;2023-01-30T00:03:23;99364.66;;;-3.07;100.00
47815;BME280;33579;50.058;18.130;2023-01-30T00:04:25;99364.59;;;-3.05;100.00
47815;BME280;33579;50.058;18.130;2023-01-30T00:05:26;99361.19;;;-3.06;100.00
47815;BME280;33579;50.058;18.130;2023-01-30T00:06:28;99363.78;;;-3.07;100.00
47815;BME280;33579;50.058;18.130;2023-01-30T00:07:30;99363.09;;;-3.13;100.00
47815;BME280;33579;50.058;18.130;2023-01-30T00:08:31;99364.81;;;-3.13;100.00
47815;BME280;33579;50.058;18.130;2023-01-30T00:09:33;99367.47;;;-3.16;100.00
47815;BME280;33579;50.058;18.130;2023-01-30T00:10:35;99365.03;;;-3.21;100.00
47815;BME280;33579;50.058;18.130;2023-01-30T00:11:36;99358.22;;;-3.23;100.00
47815;BME280;33579;50.058;18.130;2023-01-30T00:12:38;99352.94;;;-3.19;100.00
47815;BME280;33579;50.058;18.130;2023-01-30T00:13:40;99358.28;;;-3.25;100.00
47815;BME280;33579;50.058;18.130;2023-01-30T00:14:42;99349.72;;;-3.26;100.00
47815;BME280;33579;50.058;18.130;2023-01-30T00:15:44;99346.38;;;-3.29;100.00
47815;BME280;33579;50.058;18.130;2023-01-30T00:16:45;99347.25;;;-3.30;100.00
47815;BME280;33579;50.058;18.130;2023-01-30T00:17:47;99347.38;;;-3.35;100.00
47815;BME280;33579;50.058;18.130;2023-01-30T00:18:49;99340.63;;;-3.37;100.00
47815;BME280;33579;50.058;18.130;2023-01-30T00:19:50;99340.63;;;-3.37;100.00
47815;BME280;33579;50.058;18.130;2023-01-30T00:20:59;99338.84;;;-3.35;100.00
47815;BME280;33579;50.058;18.130;2023-01-30T00:22:01;99337.22;;;-3.40;100.00
47815;BME280;33579;50.058;18.130;2023-01-30T00:23:04;99338.94;;;-3.39;100.00
47815;BME280;33579;50.058;18.130;2023-01-30T00:24:06;99337.31;;;-3.43;100.00
47815;BME280;33579;50.058;18.130;2023-01-30T00:25:08;99339.94;;;-3.44;100.00
47815;BME280;33579;50.058;18.130;2023-01-30T00:26:10;99336.69;;;-3.51;100.00
47815;BME280;33579;50.058;18.130;2023-01-30T00:27:12;99339.88;;;-3.43;100.00
47815;BME280;33579;50.058;18.130;2023-01-30T00:28:14;99342.44;;;-3.43;100.00
47815;BME280;33579;50.058;18.130;2023-01-30T00:29:15;99324.34;;;-3.40;100.00
47815;BME280;33579;50.058;18.130;2023-01-30T00:30:17;99328.81;;;-3.46;100.00
47815;BME280;33579;50.058;18.130;2023-01-30T00:31:20;99320.09;;;-3.41;100.00
47815;BME280;33579;50.058;18.130;2023-01-30T00:32:23;99321.75;;;-3.38;100.00
47815;BME280;33579;50.058;18.130;2023-01-30T00:33:26;99321.78;;;-3.40;100.00
47815;BME280;33579;50.058;18.130;2023-01-30T00:34:28;99309.69;;;-3.36;100.00
47815;BME280;33579;50.058;18.130;2023-01-30T00:35:29;99296.22;;;-3.44;100.00
47815;BME280;33579;50.058;18.130;2023-01-30T00:36:31;99299.47;;;-3.39;100.00
47815;BME280;33579;50.058;18.130;2023-01-30T00:37:33;99296.03;;;-3.38;100.00
47815;BME280;33579;50.058;18.130;2023-01-30T00:38:34;99292.47;;;-3.34;100.00
47815;BME280;33579;50.058;18.130;2023-01-30T00:39:36;99286.41;;;-3.31;100.00
47815;BME280;33579;50.058;18.130;2023-01-30T00:40:38;99287.16;;;-3.28;100.00
47815;BME280;33579;50.058;18.130;2023-01-30T00:41:39;99276.97;;;-3.31;100.00
47815;BME280;33579;50.058;18.130;2023-01-30T00:42:41;99275.28;;;-3.32;100.00
47815;BME280;33579;50.058;18.130;2023-01-30T00:43:43;99270.97;;;-3.31;100.00
47815;BME280;33579;50.058;18.130;2023-01-30T00:44:47;99269.28;;;-3.32;100.00
47815;BME280;33579;50.058;18.130;2023-01-30T00:45:49;99263.22;;;-3.30;100.00
47815;BME280;33579;50.058;18.130;2023-01-30T00:46:52;99267.50;;;-3.30;100.00
47815;BME280;33579;50.058;18.130;2023-01-30T00:47:54;99266.00;;;-3.37;100.00
47815;BME280;33579;50.058;18.130;2023-01-30T00:48:55;99266.97;;;-3.42;100.00
47815;BME280;33579;50.058;18.130;2023-01-30T00:49:57;99266.25;;;-3.47;100.00
47815;BME280;33579;50.058;18.130;2023-01-30T00:50:59;99265.38;;;-3.46;100.00
47815;BME280;33579;50.058;18.130;2023-01-30T00:52:01;99264.47;;;-3.45;100.00
47815;BME280;33579;50.058;18.130;2023-01-30T00:53:02;99268.75;;;-3.44;100.00
47815;BME280;33579;50.058;18.130;2023-01-30T00:54:04;99271.16;;;-3.37;100.00
47815;BME280;33579;50.058;18.130;2023-01-30T00:55:06;99275.28;;;-3.32;100.00
47815;BME280;33579;50.058;18.130;2023-01-30T00:56:08;99263.44;;;-3.37;100.00
47815;BME280;33579;50.058;18.130;2023-01-30T00:57:09;99260.78;;;-3.36;100.00
47815;BME280;33579;50.058;18.130;2023-01-30T00:58:12;99254.59;;;-3.29;100.00
47815;BME280;33579;50.058;18.130;2023-01-30T00:59:13;99249.50;;;-3.30;100.00
47815;BME280;33579;50.058;18.130;2023-01-30T01:00:15;99248.53;;;-3.26;100.00
47815;BME280;33579;50.058;18.130;2023-01-30T01:01:17;99251.00;;;-3.23;100.00
47815;BME280;33579;50.058;18.130;2023-01-30T01:02:19;99254.47;;;-3.24;100.00
47815;BME280;33579;50.058;18.130;2023-01-30T01:03:21;99250.16;;;-3.23;100.00
47815;BME280;33579;50.058;18.130;2023-01-30T01:04:23;99244.16;;;-3.24;100.00
47815;BME280;33579;50.058;18.130;2023-01-30T01:05:25;99242.41;;;-3.22;100.00
47815;BME280;33579;50.058;18.130;2023-01-30T01:06:26;99241.41;;;-3.18;100.00
47815;BME280;33579;50.058;18.130;2023-01-30T01:07:28;99236.25;;;-3.18;100.00
47815;BME280;33579;50.058;18.130;2023-01-30T01:08:29;99230.97;;;-3.13;100.00
47815;BME280;33579;50.058;18.130;2023-01-30T01:09:31;99225.91;;;-3.15;100.00
47815;BME280;33579;50.058;18.130;2023-01-30T01:10:33;99226.06;;;-3.21;100.00
47815;BME280;33579;50.058;18.130;2023-01-30T01:11:35;99234.44;;;-3.14;100.00
47815;BME280;33579;50.058;18.130;2023-01-30T01:12:36;99229.25;;;-3.13;100.00
47815;BME280;33579;50.058;18.130;2023-01-30T01:13:38;99231.72;;;-3.09;100.00
47815;BME280;33579;50.058;18.130;2023-01-30T01:14:39;99224.94;;;-3.12;100.00
47815;BME280;33579;50.058;18.130;2023-01-30T01:15:41;99225.00;;;-3.14;100.00
47815;BME280;33579;50.058;18.130;2023-01-30T01:16:43;99227.56;;;-3.14;100.00
47815;BME280;33579;50.058;18.130;2023-01-30T01:17:45;99219.84;;;-3.14;100.00
47815;BME280;33579;50.058;18.130;2023-01-30T01:18:46;99218.19;;;-3.15;100.00
47815;BME280;33579;50.058;18.130;2023-01-30T01:19:48;99213.72;;;-3.09;100.00
47815;BME280;33579;50.058;18.130;2023-01-30T01:20:50;99216.31;;;-3.11;100.00
47815;BME280;33579;50.058;18.130;2023-01-30T01:21:52;99217.09;;;-3.07;100.00
47815;BME280;33579;50.058;18.130;2023-01-30T01:22:54;99212.69;;;-3.04;100.00
47815;BME280;33579;50.058;18.130;2023-01-30T01:23:58;99209.25;;;-3.04;100.00
47815;BME280;33579;50.058;18.130;2023-01-30T01:25:00;99206.91;;;-3.12;100.00
47815;BME280;33579;50.058;18.130;2023-01-30T01:26:02;99208.56;;;-3.09;100.00
47815;BME280;33579;50.058;18.130;2023-01-30T01:27:03;99206.03;;;-3.11;100.00
47815;BME280;33579;50.058;18.130;2023-01-30T01:28:05;99201.66;;;-3.09;100.00
47815;BME280;33579;50.058;18.130;2023-01-30T01:29:16;99200.00;;;-3.10;100.00
47815;BME280;33579;50.058;18.130;2023-01-30T01:30:18;99204.25;;;-3.09;100.00
47815;BME280;33579;50.058;18.130;2023-01-30T01:31:19;99194.00;;;-3.11;100.00
47815;BME280;33579;50.058;18.130;2023-01-30T01:32:22;99188.88;;;-3.11;100.00
47815;BME280;33579;50.058;18.130;2023-01-30T01:33:27;99188.88;;;-3.11;100.00
47815;BME280;33579;50.058;18.130;2023-01-30T01:34:29;99186.22;;;-3.09;100.00
47815;BME280;33579;50.058;18.130;2023-01-30T01:35:30;99183.50;;;-3.04;100.00
47815;BME280;33579;50.058;18.130;2023-01-30T01:36:32;99189.66;;;-3.08;100.00
47815;BME280;33579;50.058;18.130;2023-01-30T01:37:54;99174.19;;;-3.07;100.00
47815;BME280;33579;50.058;18.130;2023-01-30T01:38:56;99171.00;;;-3.15;100.00
47815;BME280;33579;50.058;18.130;2023-01-30T01:39:57;99170.06;;;-3.13;100.00
47815;BME280;33579;50.058;18.130;2023-01-30T01:41:00;99165.75;;;-3.12;100.00
47815;BME280;33579;50.058;18.130;2023-01-30T01:42:02;99157.00;;;-3.06;100.00
47815;BME280;33579;50.058;18.130;2023-01-30T01:43:24;99149.34;;;-3.08;100.00
47815;BME280;33579;50.058;18.130;2023-01-30T01:44:25;99157.91;;;-3.09;100.00
47815;BME280;33579;50.058;18.130;2023-01-30T01:45:28;99156.19;;;-3.08;100.00
47815;BME280;33579;50.058;18.130;2023-01-30T01:48:59;99156.88;;;-3.03;100.00
47815;BME280;33579;50.058;18.130;2023-01-30T01:50:04;99155.13;;;-3.01;100.00
47815;BME280;33579;50.058;18.130;2023-01-30T01:51:11;99149.91;;;-3.00;100.00
47815;BME280;33579;50.058;18.130;2023-01-30T01:52:16;99148.34;;;-3.04;100.00
47815;BME280;33579;50.058;18.130;2023-01-30T01:53:20;99151.81;;;-3.05;100.00
47815;BME280;33579;50.058;18.130;2023-01-30T01:54:40;99146.78;;;-3.09;100.00
47815;BME280;33579;50.058;18.130;2023-01-30T01:55:46;99139.91;;;-3.09;100.00
47815;BME280;33579;50.058;18.130;2023-01-30T01:56:50;99137.28;;;-3.07;100.00
47815;BME280;33579;50.058;18.130;2023-01-30T01:58:14;99145.94;;;-3.10;100.00
47815;BME280;33579;50.058;18.130;2023-01-30T01:59:37;99143.44;;;-3.12;100.00
47815;BME280;33579;50.058;18.130;2023-01-30T02:00:40;99145.22;;;-3.14;100.00
47815;BME280;33579;50.058;18.130;2023-01-30T02:01:42;99147.63;;;-3.09;100.00
47815;BME280;33579;50.058;18.130;2023-01-30T02:02:48;99146.66;;;-3.05;100.00
47815;BME280;33579;50.058;18.130;2023-01-30T02:03:54;99143.19;;;-3.04;100.00
47815;BME280;33579;50.058;18.130;2023-01-30T02:04:58;99144.91;;;-3.04;100.00
47815;BME280;33579;50.058;18.130;2023-01-30T02:06:02;99139.72;;;-3.03;100.00
47815;BME280;33579;50.058;18.130;2023-01-30T02:07:04;99146.56;;;-3.02;100.00
47815;BME280;33579;50.058;18.130;2023-01-30T02:08:07;99146.56;;;-3.02;100.00
47815;BME280;33579;50.058;18.130;2023-01-30T02:09:09;99141.28;;;-2.99;100.00
47815;BME280;33579;50.058;18.130;2023-01-30T02:10:18;99137.94;;;-3.01;100.00
47815;BME280;33579;50.058;18.130;2023-01-30T02:12:40;99134.59;;;-3.04;100.00
47815;BME280;33579;50.058;18.130;2023-01-30T02:13:44;99135.56;;;-3.07;100.00
47815;BME280;33579;50.058;18.130;2023-01-30T02:14:47;99131.31;;;-3.08;100.00
47815;BME280;33579;50.058;18.130;2023-01-30T02:15:49;99131.22;;;-3.05;100.00
47815;BME280;33579;50.058;18.130;2023-01-30T02:16:52;99126.88;;;-3.04;100.00
47815;BME280;33579;50.058;18.130;2023-01-30T02:17:53;99116.59;;;-3.04;100.00
47815;BME280;33579;50.058;18.130;2023-01-30T02:18:55;99116.56;;;-3.03;100.00
47815;BME280;33579;50.058;18.130;2023-01-30T02:24:55;99126.97;;;-3.06;100.00
47815;BME280;33579;50.058;18.130;2023-01-30T02:31:15;99105.25;;;-2.99;100.00
47815;BME280;33579;50.058;18.130;2023-01-30T02:32:36;99095.72;;;-2.95;100.00
47815;BME280;33579;50.058;18.130;2023-01-30T02:36:15;99099.69;;;-2.86;100.00
47815;BME280;33579;50.058;18.130;2023-01-30T02:39:04;99088.56;;;-2.87;100.00
47815;BME280;33579;50.058;18.130;2023-01-30T02:40:29;99089.34;;;-2.85;100.00
47815;BME280;33579;50.058;18.130;2023-01-30T02:45:31;99088.19;;;-2.76;100.00
47815;BME280;33579;50.058;18.130;2023-01-30T02:48:09;99082.16;;;-2.75;100.00
47815;BME280;33579;50.058;18.130;2023-01-30T02:49:46;99074.38;;;-2.73;100.00
47815;BME280;33579;50.058;18.130;2023-01-30T02:51:01;99075.22;;;-2.73;100.00
47815;BME280;33579;50.058;18.130;2023-01-30T02:52:05;99082.03;;;-2.72;100.00
47815;BME280;33579;50.058;18.130;2023-01-30T02:53:08;99079.47;;;-2.72;100.00
47815;BME280;33579;50.058;18.130;2023-01-30T02:54:11;99071.75;;;-2.72;100.00
47815;BME280;33579;50.058;18.130;2023-01-30T02:55:21;99076.81;;;-2.69;100.00
47815;BME280;33579;50.058;18.130;2023-01-30T02:56:24;99072.72;;;-2.74;100.00
47815;BME280;33579;50.058;18.130;2023-01-30T02:57:26;99071.75;;;-2.72;100.00
47815;BME280;33579;50.058;18.130;2023-01-30T02:58:44;99063.94;;;-2.69;100.00
47815;BME280;33579;50.058;18.130;2023-01-30T02:59:54;99060.47;;;-2.67;100.00
47815;BME280;33579;50.058;18.130;2023-01-30T03:04:14;99049.94;;;-2.61;100.00
47815;BME280;33579;50.058;18.130;2023-01-30T03:05:44;99046.66;;;-2.65;100.00
47815;BME280;33579;50.058;18.130;2023-01-30T03:07:01;99043.19;;;-2.64;100.00
47815;BME280;33579;50.058;18.130;2023-01-30T03:10:43;99042.47;;;-2.69;100.00
47815;BME280;33579;50.058;18.130;2023-01-30T03:13:19;99046.19;;;-2.76;100.00
47815;BME280;33579;50.058;18.130;2023-01-30T03:14:37;99040.91;;;-2.73;100.00
47815;BME280;33579;50.058;18.130;2023-01-30T03:15:49;99034.72;;;-2.67;100.00
47815;BME280;33579;50.058;18.130;2023-01-30T03:16:53;99030.50;;;-2.70;100.00
47815;BME280;33579;50.058;18.130;2023-01-30T03:17:56;99026.19;;;-2.70;100.00
47815;BME280;33579;50.058;18.130;2023-01-30T03:19:00;99035.03;;;-2.77;100.00
47815;BME280;33579;50.058;18.130;2023-01-30T03:20:02;99027.25;;;-2.75;100.00
47815;BME280;33579;50.058;18.130;2023-01-30T03:21:06;99022.16;;;-2.77;100.00
47815;BME280;33579;50.058;18.130;2023-01-30T03:22:07;99023.72;;;-2.73;100.00
47815;BME280;33579;50.058;18.130;2023-01-30T03:23:09;99022.81;;;-2.72;100.00
47815;BME280;33579;50.058;18.130;2023-01-30T03:24:12;99022.94;;;-2.75;100.00
47815;BME280;33579;50.058;18.130;2023-01-30T03:25:19;99026.19;;;-2.70;100.00
47815;BME280;33579;50.058;18.130;2023-01-30T03:26:25;99025.31;;;-2.69;100.00
47815;BME280;33579;50.058;18.130;2023-01-30T03:27:29;99023.72;;;-2.73;100.00
47815;BME280;33579;50.058;18.130;2023-01-30T03:28:31;99024.69;;;-2.75;100.00
47815;BME280;33579;50.058;18.130;2023-01-30T03:29:33;99018.47;;;-2.70;100.00
47815;BME280;33579;50.058;18.130;2023-01-30T03:30:34;99017.78;;;-2.75;100.00
47815;BME280;33579;50.058;18.130;2023-01-30T03:31:41;99010.16;;;-2.78;100.00
47815;BME280;33579;50.058;18.130;2023-01-30T03:32:43;99011.81;;;-2.75;100.00
47815;BME280;33579;50.058;18.130;2023-01-30T03:33:45;99022.94;;;-2.75;100.00
47815;BME280;33579;50.058;18.130;2023-01-30T03:34:46;99020.34;;;-2.75;100.00
47815;BME280;33579;50.058;18.130;2023-01-30T03:35:49;99015.94;;;-2.71;100.00
47815;BME280;33579;50.058;18.130;2023-01-30T03:36:51;99019.19;;;-2.66;100.00
47815;BME280;33579;50.058;18.130;2023-01-30T03:37:53;99008.97;;;-2.67;100.00
47815;BME280;33579;50.058;18.130;2023-01-30T03:38:55;99008.06;;;-2.66;100.00
47815;BME280;33579;50.058;18.130;2023-01-30T03:39:57;98998.50;;;-2.63;100.00
47815;BME280;33579;50.058;18.130;2023-01-30T03:41:01;98991.75;;;-2.67;100.00
47815;BME280;33579;50.058;18.130;2023-01-30T03:42:03;98981.41;;;-2.65;100.00
47815;BME280;33579;50.058;18.130;2023-01-30T03:43:05;98981.44;;;-2.67;100.00
47815;BME280;33579;50.058;18.130;2023-01-30T03:44:07;98983.25;;;-2.69;100.00
47815;BME280;33579;50.058;18.130;2023-01-30T03:45:10;98979.72;;;-2.66;100.00
47815;BME280;33579;50.058;18.130;2023-01-30T03:46:11;98983.19;;;-2.67;100.00
47815;BME280;33579;50.058;18.130;2023-01-30T03:47:13;98982.25;;;-2.65;100.00
47815;BME280;33579;50.058;18.130;2023-01-30T03:48:15;98984.88;;;-2.66;100.00
47815;BME280;33579;50.058;18.130;2023-01-30T03:49:16;98989.13;;;-2.65;100.00
47815;BME280;33579;50.058;18.130;2023-01-30T03:50:19;98979.88;;;-2.71;100.00
47815;BME280;33579;50.058;18.130;2023-01-30T03:51:21;98973.78;;;-2.69;100.00
47815;BME280;33579;50.058;18.130;2023-01-30T03:52:23;98975.59;;;-2.71;100.00
47815;BME280;33579;50.058;18.130;2023-01-30T03:53:24;98972.16;;;-2.71;100.00
47815;BME280;33579;50.058;18.130;2023-01-30T03:54:27;98973.69;;;-2.65;100.00
47815;BME280;33579;50.058;18.130;2023-01-30T03:55:28;98965.94;;;-2.65;100.00
47815;BME280;33579;50.058;18.130;2023-01-30T03:56:30;98968.38;;;-2.61;100.00
47815;BME280;33579;50.058;18.130;2023-01-30T03:57:32;98964.16;;;-2.63;100.00
47815;BME280;33579;50.058;18.130;2023-01-30T03:58:33;98969.44;;;-2.66;100.00
47815;BME280;33579;50.058;18.130;2023-01-30T03:59:47;98962.53;;;-2.66;100.00
47815;BME280;33579;50.058;18.130;2023-01-30T04:00:49;98958.22;;;-2.65;100.00
47815;BME280;33579;50.058;18.130;2023-01-30T04:01:51;98955.66;;;-2.65;100.00
47815;BME280;33579;50.058;18.130;2023-01-30T04:02:53;98949.47;;;-2.61;100.00
47815;BME280;33579;50.058;18.130;2023-01-30T04:03:54;98958.19;;;-2.64;100.00
47815;BME280;33579;50.058;18.130;2023-01-30T04:04:56;98953.25;;;-2.70;100.00
47815;BME280;33579;50.058;18.130;2023-01-30T04:05:58;98957.31;;;-2.64;100.00
47815;BME280;33579;50.058;18.130;2023-01-30T04:06:59;98951.88;;;-2.57;100.00
47815;BME280;33579;50.058;18.130;2023-01-30T04:08:02;98952.66;;;-2.55;100.00
47815;BME280;33579;50.058;18.130;2023-01-30T04:09:04;98956.31;;;-2.60;100.00
47815;BME280;33579;50.058;18.130;2023-01-30T04:10:18;98951.34;;;-2.65;100.00
47815;BME280;33579;50.058;18.130;2023-01-30T04:11:20;98951.16;;;-2.60;100.00
47815;BME280;33579;50.058;18.130;2023-01-30T04:12:22;98952.88;;;-2.59;100.00
47815;BME280;33579;50.058;18.130;2023-01-30T04:13:28;98951.06;;;-2.57;100.00
47815;BME280;33579;50.058;18.130;2023-01-30T04:14:30;98945.91;;;-2.57;100.00
47815;BME280;33579;50.058;18.130;2023-01-30T04:16:17;98944.25;;;-2.58;100.00
47815;BME280;33579;50.058;18.130;2023-01-30T04:17:31;98945.06;;;-2.58;100.00
47815;BME280;33579;50.058;18.130;2023-01-30T04:19:08;98938.22;;;-2.59;100.00
47815;BME280;33579;50.058;18.130;2023-01-30T04:20:10;98937.28;;;-2.56;100.00
47815;BME280;33579;50.058;18.130;2023-01-30T04:21:18;98940.94;;;-2.62;100.00
47815;BME280;33579;50.058;18.130;2023-01-30T04:22:20;98938.28;;;-2.60;100.00
47815;BME280;33579;50.058;18.130;2023-01-30T04:23:22;98936.56;;;-2.60;100.00
47815;BME280;33579;50.058;18.130;2023-01-30T04:24:24;98936.25;;;-2.52;100.00
47815;BME280;33579;50.058;18.130;2023-01-30T04:25:25;98936.16;;;-2.49;100.00
47815;BME280;33579;50.058;18.130;2023-01-30T04:26:28;98933.69;;;-2.52;100.00
47815;BME280;33579;50.058;18.130;2023-01-30T04:27:29;98937.00;;;-2.48;100.00
47815;BME280;33579;50.058;18.130;2023-01-30T04:28:43;98927.59;;;-2.49;100.00
47815;BME280;33579;50.058;18.130;2023-01-30T04:29:46;98931.00;;;-2.49;100.00
47815;BME280;33579;50.058;18.130;2023-01-30T04:30:48;98919.78;;;-2.48;100.00
47815;BME280;33579;50.058;18.130;2023-01-30T04:32:09;98917.91;;;-2.43;100.00
47815;BME280;33579;50.058;18.130;2023-01-30T04:33:12;98918.03;;;-2.46;100.00
47815;BME280;33579;50.058;18.130;2023-01-30T04:34:14;98915.38;;;-2.44;100.00
47815;BME280;33579;50.058;18.130;2023-01-30T04:35:16;98912.88;;;-2.46;100.00
47815;BME280;33579;50.058;18.130;2023-01-30T04:36:18;98922.31;;;-2.46;100.00
47815;BME280;33579;50.058;18.130;2023-01-30T04:37:20;98922.28;;;-2.45;100.00
47815;BME280;33579;50.058;18.130;2023-01-30T04:38:23;98919.91;;;-2.51;100.00
47815;BME280;33579;50.058;18.130;2023-01-30T04:39:25;98920.69;;;-2.49;100.00
47815;BME280;33579;50.058;18.130;2023-01-30T04:40:27;98916.44;;;-2.50;100.00
47815;BME280;33579;50.058;18.130;2023-01-30T04:41:29;98909.59;;;-2.51;100.00
47815;BME280;33579;50.058;18.130;2023-01-30T04:42:34;98906.03;;;-2.47;100.00
47815;BME280;33579;50.058;18.130;2023-01-30T04:44:04;98905.91;;;-2.44;100.00
47815;BME280;33579;50.058;18.130;2023-01-30T04:45:17;98911.00;;;-2.42;100.00
47815;BME280;33579;50.058;18.130;2023-01-30T04:46:19;98904.06;;;-2.40;100.00
47815;BME280;33579;50.058;18.130;2023-01-30T04:47:20;98905.00;;;-2.43;100.00
47815;BME280;33579;50.058;18.130;2023-01-30T04:48:23;98893.69;;;-2.38;100.00
47815;BME280;33579;50.058;18.130;2023-01-30T04:49:25;98893.56;;;-2.35;100.00
47815;BME280;33579;50.058;18.130;2023-01-30T04:50:27;98895.19;;;-2.33;100.00
47815;BME280;33579;50.058;18.130;2023-01-30T04:51:29;98888.34;;;-2.34;100.00
47815;BME280;33579;50.058;18.130;2023-01-30T04:52:32;98890.88;;;-2.32;100.00
47815;BME280;33579;50.058;18.130;2023-01-30T04:53:34;98891.66;;;-2.30;100.00
47815;BME280;33579;50.058;18.130;2023-01-30T04:54:36;98889.25;;;-2.35;100.00
47815;BME280;33579;50.058;18.130;2023-01-30T04:55:37;98882.91;;;-2.26;100.00
47815;BME280;33579;50.058;18.130;2023-01-30T04:56:39;98882.84;;;-2.24;100.00
47815;BME280;33579;50.058;18.130;2023-01-30T04:57:41;98894.81;;;-2.23;100.00
47815;BME280;33579;50.058;18.130;2023-01-30T04:58:42;98887.91;;;-2.23;100.00
47815;BME280;33579;50.058;18.130;2023-01-30T04:59:45;98876.66;;;-2.20;100.00
47815;BME280;33579;50.058;18.130;2023-01-30T05:00:49;98879.19;;;-2.19;100.00
47815;BME280;33579;50.058;18.130;2023-01-30T05:01:51;98869.59;;;-2.15;100.00
47815;BME280;33579;50.058;18.130;2023-01-30T05:02:53;98880.56;;;-2.10;100.00
47815;BME280;33579;50.058;18.130;2023-01-30T05:03:55;98865.84;;;-2.08;100.00
47815;BME280;33579;50.058;18.130;2023-01-30T05:04:57;98861.66;;;-2.10;100.00
47815;BME280;33579;50.058;18.130;2023-01-30T05:05:59;98864.38;;;-2.14;100.00
47815;BME280;33579;50.058;18.130;2023-01-30T05:07:00;98866.22;;;-2.17;100.00
47815;BME280;33579;50.058;18.130;2023-01-30T05:08:02;98861.91;;;-2.17;100.00
47815;BME280;33579;50.058;18.130;2023-01-30T05:09:04;98877.25;;;-2.14;100.00
47815;BME280;33579;50.058;18.130;2023-01-30T05:10:07;98871.91;;;-2.09;100.00
47815;BME280;33579;50.058;18.130;2023-01-30T05:11:09;98877.97;;;-2.10;100.00
47815;BME280;33579;50.058;18.130;2023-01-30T05:12:10;98861.75;;;-2.12;100.00
47815;BME280;33579;50.058;18.130;2023-01-30T05:13:12;98857.66;;;-2.18;100.00
47815;BME280;33579;50.058;18.130;2023-01-30T05:14:13;98860.38;;;-2.21;100.00
47815;BME280;33579;50.058;18.130;2023-01-30T05:15:15;98854.97;;;-2.15;100.00
47815;BME280;33579;50.058;18.130;2023-01-30T05:16:18;98853.34;;;-2.17;100.00
47815;BME280;33579;50.058;18.130;2023-01-30T05:17:20;98848.50;;;-2.25;100.00
47815;BME280;33579;50.058;18.130;2023-01-30T05:18:22;98852.75;;;-2.24;100.00
47815;BME280;33579;50.058;18.130;2023-01-30T05:19:23;98852.88;;;-2.27;100.00
47815;BME280;33579;50.058;18.130;2023-01-30T05:20:25;98853.78;;;-2.28;100.00
47815;BME280;33579;50.058;18.130;2023-01-30T05:21:27;98852.75;;;-2.24;100.00
47815;BME280;33579;50.058;18.130;2023-01-30T05:22:28;98846.00;;;-2.27;100.00
47815;BME280;33579;50.058;18.130;2023-01-30T05:23:30;98865.13;;;-2.32;100.00
47815;BME280;33579;50.058;18.130;2023-01-30T05:24:31;98856.34;;;-2.28;100.00
47815;BME280;33579;50.058;18.130;2023-01-30T05:25:33;98858.16;;;-2.30;100.00
47815;BME280;33579;50.058;18.130;2023-01-30T05:26:34;98852.28;;;-2.34;100.00
47815;BME280;33579;50.058;18.130;2023-01-30T05:27:36;98856.59;;;-2.34;100.00
47815;BME280;33579;50.058;18.130;2023-01-30T05:28:38;98859.28;;;-2.37;100.00
47815;BME280;33579;50.058;18.130;2023-01-30T05:29:40;98865.28;;;-2.37;100.00
47815;BME280;33579;50.058;18.130;2023-01-30T05:30:41;98874.66;;;-2.34;100.00
47815;BME280;33579;50.058;18.130;2023-01-30T05:31:44;98861.84;;;-2.37;100.00
47815;BME280;33579;50.058;18.130;2023-01-30T05:32:46;98859.28;;;-2.37;100.00
47815;BME280;33579;50.058;18.130;2023-01-30T05:33:49;98851.47;;;-2.34;100.00
47815;BME280;33579;50.058;18.130;2023-01-30T05:34:51;98831.63;;;-2.32;100.00
47815;BME280;33579;50.058;18.130;2023-01-30T05:35:52;98818.97;;;-2.38;100.00
47815;BME280;33579;50.058;18.130;2023-01-30T05:36:54;98800.03;;;-2.37;100.00
47815;BME280;33579;50.058;18.130;2023-01-30T05:37:55;98799.13;;;-2.36;100.00
47815;BME280;33579;50.058;18.130;2023-01-30T05:38:59;98789.63;;;-2.34;100.00
47815;BME280;33579;50.058;18.130;2023-01-30T05:40:01;98793.19;;;-2.38;100.00
47815;BME280;33579;50.058;18.130;2023-01-30T05:41:05;98797.56;;;-2.41;100.00
47815;BME280;33579;50.058;18.130;2023-01-30T05:42:06;98806.84;;;-2.36;100.00
47815;BME280;33579;50.058;18.130;2023-01-30T05:43:08;98794.16;;;-2.41;100.00
47815;BME280;33579;50.058;18.130;2023-01-30T05:44:10;98792.28;;;-2.37;100.00
47815;BME280;33579;50.058;18.130;2023-01-30T05:45:13;98797.41;;;-2.36;100.00
47815;BME280;33579;50.058;18.130;2023-01-30T05:46:14;98765.53;;;-2.33;100.00
47815;BME280;33579;50.058;18.130;2023-01-30T05:47:16;98752.56;;;-2.32;100.00
47815;BME280;33579;50.058;18.130;2023-01-30T05:48:18;98762.03;;;-2.32;100.00
47815;BME280;33579;50.058;18.130;2023-01-30T05:49:19;98764.44;;;-2.28;100.00
47815;BME280;33579;50.058;18.130;2023-01-30T05:50:21;98760.09;;;-2.27;100.00
47815;BME280;33579;50.058;18.130;2023-01-30T05:51:24;98771.31;;;-2.28;100.00
47815;BME280;33579;50.058;18.130;2023-01-30T05:52:26;98770.53;;;-2.30;100.00
47815;BME280;33579;50.058;18.130;2023-01-30T05:53:30;98777.50;;;-2.32;100.00
47815;BME280;33579;50.058;18.130;2023-01-30T05:54:33;98776.72;;;-2.34;100.00
47815;BME280;33579;50.058;18.130;2023-01-30T05:55:34;98775.03;;;-2.35;100.00
47815;BME280;33579;50.058;18.130;2023-01-30T05:56:36;98782.72;;;-2.34;100.00
47815;BME280;33579;50.058;18.130;2023-01-30T05:57:38;98777.69;;;-2.37;100.00
47815;BME280;33579;50.058;18.130;2023-01-30T05:58:40;98793.88;;;-2.33;100.00
47815;BME280;33579;50.058;18.130;2023-01-30T05:59:42;98792.97;;;-2.32;100.00
47815;BME280;33579;50.058;18.130;2023-01-30T06:00:43;98798.16;;;-2.34;100.00